createdAt,value
2019-03-06T00:01:28.862Z,8.00
2019-03-06T00:03:57.975Z,7.63
2019-03-06T00:06:27.097Z,8.17
2019-03-06T00:08:56.127Z,7.97
2019-03-06T00:11:25.151Z,7.63
2019-03-06T00:13:54.192Z,7.80
2019-03-06T00:16:23.261Z,7.47
2019-03-06T00:18:52.320Z,7.70
2019-03-06T00:21:21.358Z,7.43
2019-03-06T00:23:50.466Z,8.90
2019-03-06T00:26:19.497Z,7.80
2019-03-06T00:28:50.607Z,8.47
2019-03-06T00:31:19.634Z,8.67
2019-03-06T00:33:48.739Z,7.80
2019-03-06T00:36:22.426Z,8.40
2019-03-06T00:38:51.463Z,9.27
2019-03-06T00:41:45.788Z,8.40
2019-03-06T00:44:16.898Z,8.47
2019-03-06T00:46:45.968Z,8.10
2019-03-06T00:49:15.018Z,8.90
2019-03-06T00:51:44.101Z,8.40
2019-03-06T00:54:13.218Z,9.10
2019-03-06T00:56:42.278Z,8.50
2019-03-06T00:59:11.357Z,8.83
2019-03-06T01:01:40.403Z,8.87
2019-03-06T01:04:09.457Z,9.17
2019-03-06T01:06:38.538Z,8.97
2019-03-06T01:09:08.044Z,9.30
2019-03-06T01:11:37.195Z,8.93
2019-03-06T01:14:06.299Z,9.07
2019-03-06T01:16:35.375Z,9.10
2019-03-06T01:19:04.419Z,9.20
2019-03-06T01:21:33.468Z,8.63
2019-03-06T01:24:02.518Z,8.27
2019-03-06T01:26:31.588Z,8.37
2019-03-06T01:29:00.627Z,9.27
2019-03-06T01:31:29.737Z,9.27
2019-03-06T01:34:23.501Z,8.57
2019-03-06T01:37:29.985Z,8.43
2019-03-06T01:40:18.064Z,7.93
2019-03-06T01:42:54.662Z,8.63
2019-03-06T01:45:23.691Z,8.13
2019-03-06T01:47:54.741Z,8.50
2019-03-06T01:50:23.763Z,7.80
2019-03-06T01:52:55.513Z,7.33
2019-03-06T01:55:24.488Z,6.73
2019-03-06T01:57:53.592Z,7.47
2019-03-06T02:00:22.811Z,6.97
2019-03-06T02:02:51.877Z,7.13
2019-03-06T02:05:20.865Z,6.60
2019-03-06T02:07:49.934Z,8.47
2019-03-06T02:10:18.991Z,8.53
2019-03-06T02:12:51.751Z,8.50
2019-03-06T02:15:21.223Z,7.83
2019-03-06T02:17:50.334Z,7.20
2019-03-06T02:20:19.436Z,7.43
2019-03-06T02:22:51.435Z,7.33
2019-03-06T02:25:20.465Z,7.67
2019-03-06T02:27:49.573Z,7.77
2019-03-06T02:30:20.508Z,8.43
2019-03-06T02:32:50.895Z,7.77
2019-03-06T02:35:20.007Z,7.07
2019-03-06T02:37:49.113Z,7.73
2019-03-06T02:40:20.376Z,7.93
2019-03-06T02:42:49.452Z,6.17
2019-03-06T02:45:18.500Z,6.70
2019-03-06T02:47:47.708Z,6.67
2019-03-06T02:50:16.762Z,7.23
2019-03-06T02:52:45.836Z,7.43
2019-03-06T02:55:15.118Z,6.83
2019-03-06T02:57:50.768Z,6.80
2019-03-06T03:00:47.545Z,6.17
2019-03-06T03:03:36.657Z,5.80
2019-03-06T03:06:10.036Z,6.47
2019-03-06T03:08:39.091Z,6.70
2019-03-06T03:11:08.155Z,5.90
2019-03-06T03:13:38.151Z,5.67
2019-03-06T03:16:09.513Z,6.73
2019-03-06T03:18:39.153Z,6.23
2019-03-06T03:21:08.210Z,6.77
2019-03-06T03:23:37.274Z,6.10
2019-03-06T03:26:06.323Z,6.23
2019-03-06T03:28:35.377Z,5.57
2019-03-06T03:31:04.458Z,5.40
2019-03-06T03:33:38.458Z,5.27
2019-03-06T03:36:08.570Z,5.20
2019-03-06T03:38:37.682Z,5.30
2019-03-06T03:41:06.718Z,6.07
2019-03-06T03:43:36.035Z,5.60
2019-03-06T03:46:05.318Z,5.50
2019-03-06T03:48:34.513Z,5.30
2019-03-06T03:51:03.677Z,5.97
2019-03-06T03:53:32.777Z,5.53
2019-03-06T03:56:01.860Z,5.90
2019-03-06T03:58:30.921Z,5.57
2019-03-06T04:00:59.961Z,6.23
2019-03-06T04:03:29.129Z,6.40
2019-03-06T04:05:58.172Z,6.40
2019-03-06T04:08:27.281Z,5.43
2019-03-06T04:10:56.380Z,6.10
2019-03-06T04:13:26.529Z,6.07
2019-03-06T04:15:55.597Z,5.67
2019-03-06T04:18:24.745Z,5.57
2019-03-06T04:20:53.848Z,5.70
2019-03-06T04:23:22.863Z,5.70
2019-03-06T04:25:51.960Z,5.10
2019-03-06T04:28:21.032Z,5.90
2019-03-06T04:30:53.167Z,6.17
2019-03-06T04:33:22.327Z,6.07
2019-03-06T04:35:51.363Z,5.40
2019-03-06T04:38:20.397Z,5.73
2019-03-06T04:40:51.774Z,5.53
2019-03-06T04:43:20.849Z,5.93
2019-03-06T04:45:49.974Z,5.80
2019-03-06T04:48:18.975Z,6.53
2019-03-06T04:50:48.328Z,7.33
2019-03-06T04:53:17.345Z,5.73
2019-03-06T04:55:50.436Z,5.53
2019-03-06T04:58:19.770Z,5.67
2019-03-06T05:00:48.846Z,5.87
2019-03-06T05:03:17.905Z,5.70
2019-03-06T05:05:47.109Z,5.47
2019-03-06T05:08:17.209Z,5.70
2019-03-06T05:10:48.887Z,5.60
2019-03-06T05:13:17.850Z,5.80
2019-03-06T05:15:46.918Z,5.70
2019-03-06T05:18:27.849Z,5.20
2019-03-06T05:20:57.035Z,5.30
2019-03-06T05:23:26.076Z,5.27
2019-03-06T05:25:55.206Z,5.73
2019-03-06T05:28:24.294Z,8.90
2019-03-06T05:30:53.329Z,5.67
2019-03-06T05:33:25.520Z,5.50
2019-03-06T05:36:40.458Z,5.97
2019-03-06T05:39:10.839Z,5.73
2019-03-06T05:41:40.157Z,6.10
2019-03-06T05:44:09.219Z,5.93
2019-03-06T05:46:38.358Z,6.20
2019-03-06T05:49:07.527Z,6.67
2019-03-06T05:51:36.653Z,6.03
2019-03-06T05:54:05.713Z,6.53
2019-03-06T05:56:34.773Z,6.20
2019-03-06T05:59:04.965Z,8.53
2019-03-06T06:01:34.267Z,11.07
2019-03-06T06:04:03.291Z,10.37
2019-03-06T06:06:32.341Z,17.60
2019-03-06T06:09:01.361Z,18.80
2019-03-06T06:11:30.512Z,11.43
2019-03-06T06:13:59.631Z,9.97
2019-03-06T06:16:28.689Z,10.37
2019-03-06T06:18:57.694Z,16.50
2019-03-06T06:21:54.575Z,20.10
2019-03-06T06:24:27.619Z,18.97
2019-03-06T06:26:59.036Z,16.13
2019-03-06T06:29:30.278Z,13.90
2019-03-06T06:31:59.709Z,9.70
2019-03-06T06:34:30.026Z,8.20
2019-03-06T06:36:59.176Z,9.50
2019-03-06T06:39:30.265Z,10.63
2019-03-06T06:41:59.310Z,9.70
2019-03-06T06:44:29.746Z,8.87
2019-03-06T06:46:58.791Z,6.43
2019-03-06T06:49:27.895Z,8.03
2019-03-06T06:52:28.855Z,5.97
2019-03-06T06:55:27.157Z,9.10
2019-03-06T06:58:18.674Z,7.53
2019-03-06T07:01:36.646Z,7.17
2019-03-06T07:04:47.684Z,7.43
2019-03-06T07:07:41.596Z,7.97
2019-03-06T07:10:28.154Z,10.37
2019-03-06T07:13:16.212Z,7.53
2019-03-06T07:16:19.135Z,5.70
2019-03-06T07:19:19.762Z,5.73
2019-03-06T07:22:07.911Z,6.27
2019-03-06T07:24:59.056Z,5.93
2019-03-06T07:27:47.309Z,5.20
2019-03-06T07:30:44.333Z,5.90
2019-03-06T07:33:20.029Z,10.40
2019-03-06T07:36:27.432Z,21.93
2019-03-06T07:39:00.150Z,8.20
2019-03-06T07:41:51.779Z,5.63
2019-03-06T07:44:36.310Z,5.70
2019-03-06T07:47:23.179Z,5.60
2019-03-06T07:50:14.375Z,8.00
2019-03-06T07:53:02.474Z,6.47
2019-03-06T07:55:50.810Z,6.60
2019-03-06T07:59:06.005Z,7.10
2019-03-06T08:01:41.818Z,7.03
2019-03-06T08:04:13.061Z,6.33
2019-03-06T08:06:45.026Z,5.87
2019-03-06T08:09:19.395Z,5.37
2019-03-06T08:12:11.518Z,5.93
2019-03-06T08:15:02.741Z,5.87
2019-03-06T08:17:50.713Z,6.87
2019-03-06T08:20:37.376Z,6.70
2019-03-06T08:23:31.175Z,6.57
2019-03-06T08:26:00.184Z,6.60
2019-03-06T08:28:29.219Z,9.60
2019-03-06T08:31:26.620Z,7.17
2019-03-06T08:33:55.656Z,5.77
2019-03-06T08:36:24.732Z,6.63
2019-03-06T08:38:54.972Z,8.07
2019-03-06T08:41:24.035Z,8.07
2019-03-06T08:43:53.218Z,7.93
2019-03-06T08:46:42.004Z,7.57
2019-03-06T08:49:30.155Z,10.63
2019-03-06T08:52:24.357Z,7.17
2019-03-06T08:55:17.887Z,5.40
2019-03-06T08:58:11.510Z,4.50
2019-03-06T09:01:09.939Z,4.23
2019-03-06T09:04:16.310Z,4.47
2019-03-06T09:06:51.807Z,4.17
2019-03-06T09:09:42.814Z,4.00
2019-03-06T09:12:29.842Z,4.00
2019-03-06T09:15:16.770Z,3.70
2019-03-06T09:18:10.801Z,3.33
2019-03-06T09:21:08.073Z,3.80
2019-03-06T09:23:54.643Z,3.90
2019-03-06T09:26:33.488Z,2.93
2019-03-06T09:29:20.043Z,2.43
2019-03-06T09:32:20.108Z,1.60
2019-03-06T09:35:01.701Z,1.17
2019-03-06T09:37:54.800Z,1.17
2019-03-06T09:40:51.185Z,1.20
2019-03-06T09:43:41.078Z,1.37
2019-03-06T09:46:39.607Z,1.10
2019-03-06T09:49:20.580Z,1.70
2019-03-06T09:52:02.859Z,1.10
2019-03-06T09:54:47.366Z,1.33
2019-03-06T09:57:24.853Z,1.20
2019-03-06T10:00:03.475Z,1.33
2019-03-06T10:02:43.734Z,1.10
2019-03-06T10:05:22.995Z,1.30
2019-03-06T10:08:04.317Z,8.67
2019-03-06T10:10:58.250Z,2.00
2019-03-06T10:13:52.263Z,1.10
2019-03-06T10:16:29.531Z,1.00
2019-03-06T10:19:13.475Z,1.30
2019-03-06T10:21:42.640Z,1.20
2019-03-06T10:24:11.717Z,1.00
2019-03-06T10:26:42.397Z,1.10
2019-03-06T10:29:11.449Z,1.10
2019-03-06T10:31:40.565Z,1.07
2019-03-06T10:34:09.636Z,1.40
2019-03-06T10:36:38.768Z,1.00
2019-03-06T10:39:10.336Z,1.13
2019-03-06T10:41:39.377Z,1.00
2019-03-06T10:44:11.208Z,0.90
2019-03-06T10:46:40.318Z,1.30
2019-03-06T10:49:09.406Z,1.07
2019-03-06T10:51:38.505Z,2.47
2019-03-06T10:54:07.577Z,1.20
2019-03-06T10:56:36.607Z,1.20
2019-03-06T10:59:06.081Z,1.40
2019-03-06T11:01:35.193Z,2.17
2019-03-06T11:04:22.148Z,1.80
2019-03-06T11:06:51.323Z,2.33
2019-03-06T11:09:20.443Z,3.13
2019-03-06T11:11:49.515Z,2.40
2019-03-06T11:14:21.374Z,1.60
2019-03-06T11:16:50.469Z,3.50
2019-03-06T11:19:19.832Z,2.73
2019-03-06T11:21:48.924Z,1.60
2019-03-06T11:24:18.016Z,5.00
2019-03-06T11:26:47.092Z,2.57
2019-03-06T11:29:16.166Z,2.03
2019-03-06T11:31:45.277Z,1.87
2019-03-06T11:34:16.438Z,1.10
2019-03-06T11:36:45.494Z,2.50
2019-03-06T11:39:14.646Z,1.33
2019-03-06T11:41:43.694Z,1.90
2019-03-06T11:44:14.651Z,1.40
2019-03-06T11:46:43.703Z,2.00
2019-03-06T11:49:12.794Z,1.70
2019-03-06T11:51:41.923Z,4.10
2019-03-06T11:54:11.756Z,1.47
2019-03-06T11:56:41.343Z,2.27
2019-03-06T11:59:10.510Z,1.47
2019-03-06T12:01:47.978Z,2.93
2019-03-06T12:04:11.755Z,2.07
2019-03-06T12:06:40.914Z,1.47
2019-03-06T12:09:30.532Z,1.07
2019-03-06T12:11:59.689Z,1.90
2019-03-06T12:14:31.186Z,4.00
2019-03-06T12:17:00.188Z,1.77
2019-03-06T12:19:29.254Z,2.43
2019-03-06T12:21:58.280Z,1.37
2019-03-06T12:24:30.956Z,1.20
2019-03-06T12:27:00.209Z,1.50
2019-03-06T12:29:29.353Z,1.87
2019-03-06T12:31:58.396Z,1.50
2019-03-06T12:34:30.036Z,2.00
2019-03-06T12:36:59.121Z,1.53
2019-03-06T12:39:28.736Z,2.50
2019-03-06T12:42:00.008Z,1.27
2019-03-06T12:44:29.313Z,1.77
2019-03-06T12:47:00.836Z,1.37
2019-03-06T12:49:30.568Z,1.83
2019-03-06T12:51:59.731Z,1.40
2019-03-06T12:54:28.983Z,2.83
2019-03-06T12:56:58.137Z,3.70
2019-03-06T12:59:27.404Z,1.30
2019-03-06T13:01:56.539Z,1.70
2019-03-06T13:04:25.864Z,1.30
2019-03-06T13:06:55.516Z,1.27
2019-03-06T13:09:24.638Z,1.13
2019-03-06T13:11:53.889Z,1.60
2019-03-06T13:14:23.357Z,1.47
2019-03-06T13:16:52.732Z,1.80
2019-03-06T13:19:21.926Z,1.37
2019-03-06T13:21:50.947Z,1.60
2019-03-06T13:24:19.980Z,3.53
2019-03-06T13:26:49.060Z,1.63
2019-03-06T13:29:18.382Z,3.13
2019-03-06T13:31:47.486Z,3.17
2019-03-06T13:34:50.806Z,1.40
2019-03-06T13:37:18.367Z,1.43
2019-03-06T13:39:47.487Z,1.10
2019-03-06T13:42:16.507Z,1.20
2019-03-06T13:44:45.559Z,1.70
2019-03-06T13:47:14.662Z,1.90
2019-03-06T13:49:43.935Z,1.30
2019-03-06T13:52:13.284Z,1.07
2019-03-06T13:54:42.353Z,1.60
2019-03-06T13:57:11.995Z,1.20
2019-03-06T13:59:41.078Z,2.40
2019-03-06T14:02:10.258Z,1.73
2019-03-06T14:04:42.521Z,2.53
2019-03-06T14:07:15.030Z,1.93
2019-03-06T14:09:44.916Z,1.87
2019-03-06T14:12:13.984Z,1.50
2019-03-06T14:14:42.995Z,1.33
2019-03-06T14:17:12.097Z,1.20
2019-03-06T14:19:42.910Z,1.20
2019-03-06T14:22:11.987Z,1.03
2019-03-06T14:24:41.017Z,1.00
2019-03-06T14:27:10.142Z,1.13
2019-03-06T14:29:40.719Z,1.20
2019-03-06T14:32:14.601Z,1.30
2019-03-06T14:34:40.544Z,1.20
2019-03-06T14:37:09.711Z,1.20
2019-03-06T14:39:38.720Z,0.97
2019-03-06T14:42:08.029Z,1.10
2019-03-06T14:44:37.098Z,1.10
2019-03-06T14:47:08.192Z,1.30
2019-03-06T14:49:37.562Z,1.20
2019-03-06T14:52:07.901Z,1.03
2019-03-06T14:54:36.928Z,1.37
2019-03-06T14:57:06.088Z,1.03
2019-03-06T14:59:37.732Z,1.53
2019-03-06T15:02:06.804Z,1.50
2019-03-06T15:04:35.852Z,1.63
2019-03-06T15:07:06.258Z,2.00
2019-03-06T15:09:35.418Z,1.90
2019-03-06T15:12:04.442Z,1.60
2019-03-06T15:14:36.897Z,1.60
2019-03-06T15:17:08.187Z,1.87
2019-03-06T15:19:39.176Z,3.70
2019-03-06T15:22:10.311Z,2.07
2019-03-06T15:24:41.608Z,2.03
2019-03-06T15:27:11.687Z,1.93
2019-03-06T15:29:41.039Z,2.53
2019-03-06T15:32:10.096Z,1.50
2019-03-06T15:34:39.133Z,1.63
2019-03-06T15:37:08.231Z,2.20
2019-03-06T15:39:45.638Z,1.90
2019-03-06T15:42:12.902Z,1.77
2019-03-06T15:44:42.019Z,1.60
2019-03-06T15:47:12.367Z,1.60
2019-03-06T15:49:41.441Z,1.77
2019-03-06T15:52:10.939Z,1.73
2019-03-06T15:54:39.994Z,1.80
2019-03-06T15:57:11.508Z,1.70
2019-03-06T15:59:40.665Z,1.57
2019-03-06T16:02:09.722Z,1.50
2019-03-06T16:04:38.848Z,1.70
2019-03-06T16:07:07.862Z,1.80
2019-03-06T16:09:37.482Z,1.57
2019-03-06T16:12:06.523Z,9.43
2019-03-06T16:14:35.640Z,3.00
2019-03-06T16:17:04.675Z,2.03
2019-03-06T16:19:34.188Z,12.33
2019-03-06T16:22:03.366Z,2.83
2019-03-06T16:24:34.005Z,2.57
2019-03-06T16:27:03.010Z,1.60
2019-03-06T16:29:32.140Z,1.90
2019-03-06T16:32:01.203Z,3.47
2019-03-06T16:34:32.256Z,2.40
2019-03-06T16:37:01.294Z,1.63
2019-03-06T16:39:30.368Z,1.90
2019-03-06T16:41:59.378Z,1.80
2019-03-06T16:44:28.489Z,2.13
2019-03-06T16:47:06.171Z,1.97
2019-03-06T16:49:28.337Z,2.33
2019-03-06T16:51:57.630Z,2.37
2019-03-06T16:54:26.657Z,2.07
2019-03-06T16:56:55.775Z,1.87
2019-03-06T16:59:24.865Z,2.03
2019-03-06T17:01:53.899Z,2.30
2019-03-06T17:04:22.973Z,2.27
2019-03-06T17:06:52.010Z,2.30
2019-03-06T17:09:21.069Z,2.43
2019-03-06T17:11:50.093Z,2.90
2019-03-06T17:14:19.126Z,4.13
2019-03-06T17:16:48.222Z,2.60
2019-03-06T17:19:17.250Z,2.93
2019-03-06T17:21:46.395Z,2.97
2019-03-06T17:24:15.391Z,2.77
2019-03-06T17:26:45.787Z,2.17
2019-03-06T17:29:15.152Z,2.30
2019-03-06T17:31:44.228Z,2.17
2019-03-06T17:34:13.630Z,2.33
2019-03-06T17:36:42.652Z,2.47
2019-03-06T17:39:11.854Z,2.97
2019-03-06T17:41:40.944Z,3.27
2019-03-06T17:44:11.168Z,3.67
2019-03-06T17:46:40.365Z,3.93
2019-03-06T17:49:09.546Z,3.70
2019-03-06T17:51:38.692Z,4.50
2019-03-06T17:54:07.787Z,3.53
2019-03-06T17:56:36.863Z,3.03
2019-03-06T17:59:06.032Z,3.27
2019-03-06T18:01:35.151Z,3.30
2019-03-06T18:04:25.531Z,3.43
2019-03-06T18:06:56.036Z,3.20
2019-03-06T18:09:25.064Z,3.70
2019-03-06T18:11:54.169Z,3.20
2019-03-06T18:14:23.239Z,3.13
2019-03-06T18:16:52.337Z,3.33
2019-03-06T18:19:23.671Z,3.10
2019-03-06T18:21:52.711Z,3.73
2019-03-06T18:24:21.824Z,3.67
2019-03-06T18:26:50.930Z,3.40
2019-03-06T18:29:19.956Z,3.10
2019-03-06T18:31:49.339Z,3.17
2019-03-06T18:34:18.455Z,4.27
2019-03-06T18:36:47.524Z,3.53
2019-03-06T18:39:22.920Z,3.90
2019-03-06T18:41:53.281Z,3.87
2019-03-06T18:44:22.319Z,8.13
2019-03-06T18:46:51.465Z,9.03
2019-03-06T18:49:20.716Z,8.03
2019-03-06T18:51:50.009Z,6.07
2019-03-06T18:54:21.345Z,7.13
2019-03-06T18:56:50.699Z,7.23
2019-03-06T18:59:19.806Z,4.87
2019-03-06T19:01:48.899Z,4.77
2019-03-06T19:04:18.022Z,4.80
2019-03-06T19:06:47.081Z,5.00
2019-03-06T19:09:16.145Z,5.67
2019-03-06T19:11:45.363Z,4.37
2019-03-06T19:14:14.429Z,5.83
2019-03-06T19:16:43.482Z,4.57
2019-03-06T19:19:12.560Z,7.23
2019-03-06T19:21:41.616Z,8.90
2019-03-06T19:24:10.709Z,6.20
2019-03-06T19:26:40.016Z,5.23
2019-03-06T19:29:09.091Z,15.50
2019-03-06T19:31:38.144Z,6.43
2019-03-06T19:34:07.217Z,4.60
2019-03-06T19:36:36.284Z,4.30
2019-03-06T19:39:06.639Z,4.60
2019-03-06T19:41:35.891Z,7.10
2019-03-06T19:44:05.024Z,6.90
2019-03-06T19:46:34.370Z,5.83
2019-03-06T19:49:03.590Z,5.43
2019-03-06T19:51:32.661Z,5.17
2019-03-06T19:54:01.800Z,4.83
2019-03-06T19:56:31.125Z,4.10
2019-03-06T19:59:00.266Z,4.17
2019-03-06T20:01:29.382Z,4.50
2019-03-06T20:03:58.470Z,4.70
2019-03-06T20:06:27.560Z,4.93
2019-03-06T20:08:56.630Z,4.60
2019-03-06T20:11:25.726Z,5.10
2019-03-06T20:13:57.911Z,5.90
2019-03-06T20:16:26.970Z,4.87
2019-03-06T20:18:56.116Z,5.23
2019-03-06T20:21:25.318Z,6.80
2019-03-06T20:23:54.366Z,6.13
2019-03-06T20:26:23.357Z,4.97
2019-03-06T20:28:52.423Z,4.77
2019-03-06T20:31:21.439Z,5.27
2019-03-06T20:33:50.538Z,4.83
2019-03-06T20:36:19.561Z,5.80
2019-03-06T20:38:48.604Z,5.07
2019-03-06T20:41:17.684Z,7.80
2019-03-06T20:43:46.838Z,8.03
2019-03-06T20:46:15.967Z,10.03
2019-03-06T20:48:45.054Z,9.30
2019-03-06T20:51:14.099Z,6.20
2019-03-06T20:53:43.178Z,10.10
2019-03-06T20:56:12.365Z,8.37
2019-03-06T20:58:41.544Z,21.00
2019-03-06T21:01:10.620Z,9.23
2019-03-06T21:03:39.651Z,6.80
2019-03-06T21:06:08.996Z,6.53
2019-03-06T21:08:38.058Z,6.00
2019-03-06T21:11:07.116Z,6.80
2019-03-06T21:13:36.138Z,7.80
2019-03-06T21:16:05.199Z,7.07
2019-03-06T21:18:34.251Z,8.00
2019-03-06T21:21:03.327Z,7.27
2019-03-06T21:23:32.393Z,7.80
2019-03-06T21:26:01.465Z,7.90
2019-03-06T21:28:30.536Z,7.87
2019-03-06T21:30:59.596Z,8.03
2019-03-06T21:33:28.634Z,7.77
2019-03-06T21:35:57.948Z,8.10
2019-03-06T21:38:27.016Z,8.10
2019-03-06T21:40:56.158Z,9.10
2019-03-06T21:43:25.169Z,7.67
2019-03-06T21:45:54.298Z,7.60
2019-03-06T21:48:23.355Z,6.70
2019-03-06T21:50:52.698Z,7.07
2019-03-06T21:53:21.770Z,7.13
2019-03-06T21:55:50.821Z,7.50
2019-03-06T21:58:19.905Z,7.00
2019-03-06T22:00:48.965Z,6.70
2019-03-06T22:03:18.031Z,5.57
2019-03-06T22:05:48.105Z,6.20
2019-03-06T22:08:17.197Z,5.80
2019-03-06T22:10:46.273Z,5.83
2019-03-06T22:13:15.356Z,7.13
2019-03-06T22:15:44.406Z,7.00
2019-03-06T22:18:13.515Z,7.63
2019-03-06T22:20:42.857Z,7.27
2019-03-06T22:23:11.904Z,7.07
2019-03-06T22:25:42.156Z,6.40
2019-03-06T22:28:11.272Z,5.77
2019-03-06T22:30:40.313Z,5.87
2019-03-06T22:33:09.371Z,5.80
2019-03-06T22:35:38.683Z,5.87
2019-03-06T22:38:07.773Z,5.87
2019-03-06T22:40:36.856Z,6.97
2019-03-06T22:43:05.980Z,6.47
2019-03-06T22:45:34.989Z,5.27
2019-03-06T22:48:05.271Z,5.60
2019-03-06T22:50:34.468Z,5.67
2019-03-06T22:53:03.567Z,6.50
2019-03-06T22:55:32.595Z,5.87
2019-03-06T22:58:02.739Z,4.97
2019-03-06T23:00:51.751Z,5.17
2019-03-06T23:03:21.301Z,5.20
2019-03-06T23:05:53.216Z,5.50
2019-03-06T23:08:23.695Z,5.33
2019-03-06T23:10:52.916Z,5.77
2019-03-06T23:13:22.105Z,4.97
2019-03-06T23:15:51.147Z,5.47
2019-03-06T23:18:20.235Z,4.97
2019-03-06T23:20:49.317Z,5.20
2019-03-06T23:23:18.348Z,5.53
2019-03-06T23:25:47.382Z,5.30
2019-03-06T23:28:16.570Z,5.03
2019-03-06T23:30:45.611Z,4.83
2019-03-06T23:33:14.681Z,4.93
2019-03-06T23:35:43.673Z,4.80
2019-03-06T23:38:15.041Z,4.80
2019-03-06T23:40:44.121Z,4.17
2019-03-06T23:43:14.170Z,4.50
2019-03-06T23:45:43.169Z,4.57
2019-03-06T23:48:12.264Z,4.77
2019-03-06T23:50:41.263Z,4.70
2019-03-06T23:53:12.028Z,4.10
2019-03-06T23:55:41.248Z,4.30
2019-03-06T23:58:10.349Z,4.43
